Time;durP1;ratioP1;P1;durP2;ratioP2;P2;SDS_P1;SDS_P2;PMS_P1;PMS_P2;Temp;Humidity;BMP_temperature;BMP_pressure;BME280_temperature;BME280_humidity;BME280_pressure;Samples;Min_cycle;Max_cycle;Signal;HPM_P1;HPM_P2
2021/08/13 00:02:07;;;;;;;3.53;3.22;;;;;;;18.39;75.10;101808.00;6367746;28;20189;-77
2021/08/13 00:05:12;;;;;;;8.85;3.45;;;;;;;18.37;75.53;101804.66;6368477;28;20196;-77
2021/08/13 00:08:21;;;;;;;4.13;3.60;;;;;;;18.39;75.47;101807.16;6367270;28;20183;-77
2021/08/13 00:11:25;;;;;;;4.30;3.17;;;;;;;18.37;75.20;101807.44;6368097;28;20186;-77
2021/08/13 00:14:33;;;;;;;11.25;3.05;;;;;;;18.31;74.76;101811.16;6367055;28;20489;-77
2021/08/13 00:17:38;;;;;;;3.10;2.90;;;;;;;18.35;74.36;101812.38;6367065;28;20383;-77
2021/08/13 00:20:42;;;;;;;3.42;3.10;;;;;;;18.34;75.07;101810.69;6368096;28;20214;-77
2021/08/13 00:23:48;;;;;;;4.80;3.33;;;;;;;18.31;75.52;101819.44;6367105;28;20182;-77
2021/08/13 00:26:52;;;;;;;3.28;3.05;;;;;;;18.26;76.35;101811.06;6367916;28;20273;-77
2021/08/13 00:29:57;;;;;;;3.45;3.15;;;;;;;18.26;75.92;101813.81;6367572;28;20182;-77
2021/08/13 00:33:01;;;;;;;3.30;3.10;;;;;;;18.18;76.09;101805.91;6366674;28;20475;-77
2021/08/13 00:36:12;;;;;;;3.38;3.10;;;;;;;18.17;75.17;101803.41;6348587;28;20502;-77
2021/08/13 00:39:18;;;;;;;3.40;3.13;;;;;;;18.18;74.23;101805.91;6367619;28;20189;-77
2021/08/13 00:42:24;;;;;;;3.95;2.95;;;;;;;18.21;74.61;101802.66;6348717;28;20352;-77
2021/08/13 00:45:31;;;;;;;3.55;3.40;;;;;;;18.12;75.14;101813.28;6382566;27;20299;-77
2021/08/13 00:48:42;;;;;;;4.15;3.40;;;;;;;18.07;74.77;101802.13;6348706;28;20197;-77
2021/08/13 00:52:08;;;;;;;3.40;3.20;;;;;;;18.02;75.43;101795.63;6367241;28;20183;-77
2021/08/13 00:55:14;;;;;;;5.53;3.28;;;;;;;17.97;76.48;101798.28;6348438;28;20464;-77
2021/08/13 00:58:36;;;;;;;4.57;3.15;;;;;;;17.98;75.95;101802.72;6383026;27;20205;-77
2021/08/13 01:01:59;;;;;;;6.43;3.55;;;;;;;17.98;75.71;101805.47;6349189;28;20265;-77
2021/08/13 01:05:06;;;;;;;3.53;3.33;;;;;;;17.82;75.99;101811.75;6383063;27;20205;-77
2021/08/13 01:08:12;;;;;;;3.95;3.55;;;;;;;17.90;75.95;101814.13;6347746;28;20218;-77
2021/08/13 01:11:26;;;;;;;4.57;3.58;;;;;;;17.88;76.36;101811.63;6366423;28;20183;-77
2021/08/13 01:14:41;;;;;;;3.53;3.42;;;;;;;17.88;75.85;101816.28;6347557;28;20206;-77
2021/08/13 01:17:54;;;;;;;3.50;3.20;;;;;;;17.87;76.30;101803.59;6348158;28;20234;-77
2021/08/13 01:21:28;;;;;;;3.47;3.17;;;;;;;17.80;77.21;101814.75;6347404;28;20386;-77
2021/08/13 01:24:41;;;;;;;4.63;3.10;;;;;;;17.83;76.97;101802.38;6382171;27;20198;-77
2021/08/13 01:27:50;;;;;;;3.92;3.72;;;;;;;17.76;78.42;101801.66;6348046;28;20218;-77
2021/08/13 01:30:55;;;;;;;4.10;3.80;;;;;;;17.66;77.82;101812.47;6347211;28;20384;-77
2021/08/13 01:34:05;;;;;;;4.72;3.78;;;;;;;17.72;77.08;101806.00;6347080;28;20460;-77
2021/08/13 01:37:13;;;;;;;4.10;3.80;;;;;;;17.78;76.48;101810.53;6347433;28;20490;-77
2021/08/13 01:40:19;;;;;;;4.97;3.80;;;;;;;17.74;76.74;101803.84;6366196;28;20182;-77
2021/08/13 01:43:27;;;;;;;4.10;3.70;;;;;;;17.58;77.42;101810.06;6348000;28;20198;-77
2021/08/13 01:46:35;;;;;;;4.88;4.07;;;;;;;17.62;77.01;101805.75;6347239;28;20222;-76
2021/08/13 01:49:41;;;;;;;4.07;3.78;;;;;;;17.60;77.08;101807.91;6346675;28;20202;-76
2021/08/13 01:52:47;;;;;;;3.95;3.75;;;;;;;17.50;77.25;101809.31;6346282;28;20470;-76
2021/08/13 01:55:53;;;;;;;4.20;4.00;;;;;;;17.54;77.88;101797.84;6363396;28;20198;-76
2021/08/13 01:59:02;;;;;;;3.78;3.67;;;;;;;17.40;77.19;101805.47;6345656;28;20202;-76
2021/08/13 02:02:08;;;;;;;3.72;3.53;;;;;;;17.40;77.51;101803.56;6346015;28;20485;-76
2021/08/13 02:05:21;;;;;;;4.05;3.70;;;;;;;17.46;77.35;101808.09;6346034;28;20204;-76
2021/08/13 02:08:27;;;;;;;3.92;3.72;;;;;;;17.50;78.13;101803.81;6346661;28;20225;-76
2021/08/13 02:11:34;;;;;;;3.80;3.70;;;;;;;17.44;77.80;101810.28;6379242;27;20266;-76
2021/08/13 02:14:40;;;;;;;5.03;4.22;;;;;;;17.32;77.91;101801.16;6346347;28;20198;-77
2021/08/13 02:17:54;;;;;;;3.72;3.63;;;;;;;17.28;78.58;101799.94;6345617;28;20270;-77
2021/08/13 02:21:11;;;;;;;4.00;3.80;;;;;;;17.47;77.56;101798.75;6347034;28;20198;-77
2021/08/13 02:24:17;;;;;;;4.13;3.88;;;;;;;17.47;78.21;101803.44;6345120;28;20313;-77
2021/08/13 02:27:30;;;;;;;4.25;3.90;;;;;;;17.50;78.12;101801.06;6346069;28;20218;-77
2021/08/13 02:30:34;;;;;;;6.05;3.83;;;;;;;17.48;78.68;101797.69;6345852;28;20561;-77
2021/08/13 02:33:44;;;;;;;6.60;4.07;;;;;;;17.49;79.34;101807.63;6371262;27;20288;-77
2021/08/13 02:36:57;;;;;;;4.25;4.00;;;;;;;17.45;79.35;101800.94;6336829;28;20410;-77
2021/08/13 02:40:05;;;;;;;4.53;4.22;;;;;;;17.42;78.82;101800.56;6371216;27;20394;-77
2021/08/13 02:43:19;;;;;;;6.28;4.10;;;;;;;17.30;79.05;101797.81;6338967;28;20183;-77
2021/08/13 02:46:33;;;;;;;4.50;4.30;;;;;;;17.36;79.75;101795.97;6320578;28;20277;-77
2021/08/13 02:49:47;;;;;;;4.40;4.10;;;;;;;17.35;79.05;101806.19;6337508;28;20206;-77
2021/08/13 02:52:58;;;;;;;4.63;4.15;;;;;;;17.33;79.71;101800.06;6336464;28;20324;-77
2021/08/13 02:56:05;;;;;;;4.47;4.07;;;;;;;17.37;79.09;101798.53;6336724;28;20266;-78
2021/08/13 02:59:18;;;;;;;4.85;4.65;;;;;;;17.27;79.81;101801.03;6337565;28;20206;-78
2021/08/13 03:02:24;;;;;;;4.18;3.97;;;;;;;17.33;79.04;101802.81;6338049;28;20198;-78
2021/08/13 03:05:30;;;;;;;4.82;4.43;;;;;;;17.35;79.44;101800.69;6320714;28;20262;-78
2021/08/13 03:08:46;;;;;;;5.10;4.15;;;;;;;17.32;79.13;101801.16;6338637;28;20245;-77
2021/08/13 03:11:51;;;;;;;5.60;4.28;;;;;;;17.32;79.36;101803.91;6339391;28;20215;-77
2021/08/13 03:15:00;;;;;;;4.75;4.50;;;;;;;17.21;79.12;101801.97;6319459;28;20198;-77
2021/08/13 03:18:14;;;;;;;4.10;3.70;;;;;;;17.15;79.04;101794.66;6320984;28;20187;-78
2021/08/13 03:21:19;;;;;;;4.85;4.15;;;;;;;17.20;79.49;101797.56;6319293;28;20439;-77
2021/08/13 03:24:25;;;;;;;4.32;4.03;;;;;;;17.27;80.14;101798.28;6319391;28;20221;-77
2021/08/13 03:27:30;;;;;;;3.95;3.85;;;;;;;17.34;79.15;101793.47;6319716;28;20238;-77
2021/08/13 03:30:40;;;;;;;4.72;4.35;;;;;;;17.27;78.54;101787.25;6336355;28;20198;-77
2021/08/13 03:33:47;;;;;;;4.10;3.90;;;;;;;17.38;79.20;101789.16;6327662;28;20225;-77
2021/08/13 03:36:52;;;;;;;4.78;4.43;;;;;;;17.41;79.19;101783.16;6378044;27;20504;-78
2021/08/13 03:40:05;;;;;;;4.55;4.25;;;;;;;17.41;79.98;101782.34;6345147;28;20273;-77
2021/08/13 03:43:12;;;;;;;4.90;4.47;;;;;;;17.28;79.74;101779.81;6344778;28;20698;-77
2021/08/13 03:46:19;;;;;;;5.38;4.40;;;;;;;17.31;80.06;101782.91;6344787;28;20198;-77
2021/08/13 03:49:25;;;;;;;4.32;4.03;;;;;;;17.40;80.21;101764.94;6344367;28;20533;-77
2021/08/13 03:52:34;;;;;;;4.78;4.47;;;;;;;17.42;80.21;101773.81;6344288;28;20265;-77
2021/08/13 03:55:40;;;;;;;4.30;4.00;;;;;;;17.35;80.57;101770.34;6377788;28;20208;-77
2021/08/13 03:58:44;;;;;;;4.28;3.97;;;;;;;17.43;80.37;101774.66;6362703;28;20239;-77
2021/08/13 04:01:49;;;;;;;4.40;4.20;;;;;;;17.47;80.26;101782.22;6344923;28;20270;-77
2021/08/13 04:04:53;;;;;;;5.30;4.90;;;;;;;17.47;81.07;101771.16;6362649;28;20189;-77
2021/08/13 04:07:57;;;;;;;6.70;5.10;;;;;;;17.52;80.68;101763.03;6362649;28;20214;-76
2021/08/13 04:11:03;;;;;;;5.13;4.50;;;;;;;17.64;80.54;101764.97;6344598;28;20300;-77
2021/08/13 04:14:13;;;;;;;5.07;4.63;;;;;;;17.64;80.62;101764.97;6343780;28;20496;-77
2021/08/13 04:17:19;;;;;;;4.80;4.60;;;;;;;17.69;80.31;101767.84;6343215;28;20198;-77
2021/08/13 04:20:23;;;;;;;5.53;4.55;;;;;;;17.76;80.67;101757.50;6344128;28;20202;-77
2021/08/13 04:23:41;;;;;;;4.55;4.35;;;;;;;17.84;80.56;101751.63;6345638;28;20183;-77
2021/08/13 04:26:47;;;;;;;5.05;4.75;;;;;;;17.83;81.16;101763.72;6344515;28;20205;-77
2021/08/13 04:29:53;;;;;;;5.13;4.82;;;;;;;17.87;80.78;101754.72;6344149;28;20222;-77
2021/08/13 04:32:58;;;;;;;5.15;4.55;;;;;;;17.92;80.65;101756.75;6362238;28;20335;-77
2021/08/13 04:36:06;;;;;;;4.80;4.40;;;;;;;17.94;80.46;101754.59;6345161;28;20182;-77
2021/08/13 04:39:14;;;;;;;5.05;4.68;;;;;;;17.99;81.13;101752.78;6377213;28;20193;-78
2021/08/13 04:42:22;;;;;;;5.05;4.60;;;;;;;18.05;81.13;101756.50;6344329;28;20405;-78
2021/08/13 04:45:27;;;;;;;5.32;4.97;;;;;;;18.08;80.77;101751.31;6343708;28;20229;-76
2021/08/13 04:48:32;;;;;;;5.45;4.90;;;;;;;18.09;81.68;101752.16;6346663;28;20289;-76
2021/08/13 04:51:36;;;;;;;5.15;4.75;;;;;;;18.18;81.97;101760.91;6382049;27;20260;-76
2021/08/13 04:54:40;;;;;;;5.53;5.10;;;;;;;18.18;81.98;101764.47;6366686;28;20245;-77
2021/08/13 04:57:47;;;;;;;5.22;4.82;;;;;;;18.24;82.40;101777.31;6347658;28;20201;-77
2021/08/13 05:00:51;;;;;;;5.53;5.00;;;;;;;18.22;81.34;101776.72;6347509;28;20295;-77
2021/08/13 05:03:56;;;;;;;4.95;4.68;;;;;;;18.35;81.26;101768.16;6382606;27;20202;-77
2021/08/13 05:07:00;;;;;;;5.20;4.78;;;;;;;18.35;80.87;101768.16;6365676;28;20182;-77
2021/08/13 05:10:07;;;;;;;4.88;4.47;;;;;;;18.45;79.90;101773.88;6381043;27;20249;-77
2021/08/13 05:13:17;;;;;;;5.00;4.70;;;;;;;18.51;79.53;101772.94;6366888;28;20189;-77
2021/08/13 05:16:23;;;;;;;5.15;4.75;;;;;;;18.57;79.87;101765.56;6381346;27;20236;-77
2021/08/13 05:19:29;;;;;;;6.13;5.30;;;;;;;18.64;79.17;101769.84;6365255;28;20216;-77
2021/08/13 05:22:34;;;;;;;5.07;4.85;;;;;;;18.69;78.88;101774.66;6347170;28;20307;-76
2021/08/13 05:25:39;;;;;;;5.55;4.57;;;;;;;18.72;79.24;101766.69;6347031;28;20259;-76
2021/08/13 05:28:46;;;;;;;6.40;4.68;;;;;;;18.70;79.29;101770.78;6380248;27;20250;-77
2021/08/13 05:31:54;;;;;;;5.05;4.75;;;;;;;18.71;79.19;101773.31;6346710;28;20198;-76
2021/08/13 05:34:58;;;;;;;7.43;5.35;;;;;;;18.81;80.04;101777.34;6337653;28;20258;-78
2021/08/13 05:38:05;;;;;;;6.03;5.38;;;;;;;18.84;79.82;101761.09;6337747;28;20198;-77
2021/08/13 05:41:11;;;;;;;5.32;4.82;;;;;;;18.99;79.68;101777.13;6321678;28;20236;-77
2021/08/13 05:44:20;;;;;;;6.00;4.90;;;;;;;19.04;79.04;101777.22;6338895;28;20267;-76
2021/08/13 05:47:27;;;;;;;6.05;5.30;;;;;;;19.02;80.58;101779.41;6337459;28;20183;-76
2021/08/13 05:50:31;;;;;;;5.75;5.30;;;;;;;18.94;79.73;101775.13;6321349;28;20250;-77
2021/08/13 05:53:36;;;;;;;5.57;5.15;;;;;;;19.09;79.03;101774.53;6339612;28;20187;-77
2021/08/13 05:56:40;;;;;;;6.20;5.70;;;;;;;19.05;79.30;101773.38;6322657;28;20443;-77
2021/08/13 05:59:46;;;;;;;6.00;5.38;;;;;;;19.12;78.72;101768.50;6341249;28;20186;-77
2021/08/13 06:02:55;;;;;;;6.20;5.60;;;;;;;19.17;78.05;101782.41;6341432;28;20214;-77
2021/08/13 06:06:00;;;;;;;8.73;5.30;;;;;;;19.18;78.39;101778.56;6321980;28;20199;-77
2021/08/13 06:09:04;;;;;;;5.85;5.35;;;;;;;19.24;77.87;101772.00;6339686;28;20214;-77
2021/08/13 06:12:10;;;;;;;11.85;5.78;;;;;;;19.26;77.84;101769.81;6322295;28;20187;-77
2021/08/13 06:15:17;;;;;;;6.30;5.13;;;;;;;19.29;77.51;101775.72;6320908;28;20206;-77
2021/08/13 06:18:23;;;;;;;5.80;5.30;;;;;;;19.34;77.25;101772.19;6320897;28;20550;-77
2021/08/13 06:21:29;;;;;;;5.20;4.80;;;;;;;19.45;76.95;101767.69;6319824;28;20210;-76
2021/08/13 06:24:34;;;;;;;5.50;5.20;;;;;;;19.54;76.29;101769.75;6336591;28;20450;-77
2021/08/13 06:27:45;;;;;;;5.35;4.93;;;;;;;19.63;76.12;101779.31;6336827;28;20250;-77
2021/08/13 06:30:51;;;;;;;6.47;5.43;;;;;;;19.66;75.77;101776.03;6319964;28;20321;-76
2021/08/13 06:33:55;;;;;;;7.03;5.30;;;;;;;19.68;76.47;101779.38;6351397;28;20394;-76
2021/08/13 06:37:03;;;;;;;5.57;5.10;;;;;;;19.90;76.35;101771.94;6345403;28;20198;-76
2021/08/13 06:40:12;;;;;;;5.10;4.70;;;;;;;20.02;75.99;101773.75;6344926;28;20478;-76
2021/08/13 06:43:17;;;;;;;4.85;4.53;;;;;;;20.12;76.42;101771.97;6378670;27;20204;-76
2021/08/13 06:46:32;;;;;;;7.00;5.20;;;;;;;20.27;75.15;101769.41;6344811;28;20273;-77
2021/08/13 06:49:36;;;;;;;5.38;4.85;;;;;;;20.33;74.98;101773.09;6346280;28;20221;-77
2021/08/13 06:52:41;;;;;;;5.38;5.05;;;;;;;20.45;74.65;101769.06;6345589;28;20202;-77
2021/08/13 06:55:45;;;;;;;9.77;4.85;;;;;;;20.63;74.58;101769.81;6363033;28;20190;-77
2021/08/13 06:58:50;;;;;;;5.28;4.88;;;;;;;20.77;73.66;101769.16;6344354;28;20264;-77
2021/08/13 07:01:56;;;;;;;5.50;5.00;;;;;;;20.84;74.11;101767.00;6379408;27;20209;-77
2021/08/13 07:05:01;;;;;;;4.68;4.28;;;;;;;20.90;73.75;101771.47;6344841;28;20514;-77
2021/08/13 07:08:10;;;;;;;5.22;4.90;;;;;;;20.95;72.49;101763.22;6362619;28;20182;-77
2021/08/13 07:11:18;;;;;;;17.25;5.25;;;;;;;21.02;71.90;101763.00;6344335;28;20243;-77
2021/08/13 07:14:22;;;;;;;6.35;5.28;;;;;;;21.04;72.02;101760.78;6344867;28;20386;-77
2021/08/13 07:17:28;;;;;;;8.23;4.97;;;;;;;20.89;72.30;101764.25;6362622;28;20466;-77
2021/08/13 07:20:33;;;;;;;5.55;5.05;;;;;;;20.90;71.83;101754.00;6344870;28;20202;-77
2021/08/13 07:23:41;;;;;;;5.47;5.10;;;;;;;20.96;71.96;101756.56;6345597;28;20205;-77
2021/08/13 07:26:46;;;;;;;5.55;4.60;;;;;;;21.13;71.54;101759.25;6379078;27;20236;-78
2021/08/13 07:29:57;;;;;;;5.43;4.95;;;;;;;21.29;71.68;101751.88;6347133;28;20217;-78
2021/08/13 07:33:05;;;;;;;5.55;5.00;;;;;;;21.36;71.44;101758.88;6346390;28;20222;-78
2021/08/13 07:36:10;;;;;;;5.97;4.97;;;;;;;21.44;72.03;101750.03;6346283;28;20220;-78
2021/08/13 07:39:18;;;;;;;6.95;4.65;;;;;;;21.48;70.72;101761.44;6380753;27;20198;-78
2021/08/13 07:42:26;;;;;;;4.82;4.50;;;;;;;21.51;70.34;101758.13;6347048;28;20234;-78
2021/08/13 07:45:33;;;;;;;5.55;5.00;;;;;;;21.50;69.14;101767.56;6381130;28;20261;-78
2021/08/13 07:48:39;;;;;;;4.95;4.70;;;;;;;21.45;68.70;101756.41;6346352;28;20198;-78
2021/08/13 07:51:44;;;;;;;6.20;4.45;;;;;;;21.50;68.54;101754.50;6380337;28;20222;-78
2021/08/13 07:54:51;;;;;;;5.57;5.15;;;;;;;21.45;69.06;101751.72;6345973;28;20264;-78
2021/08/13 07:57:56;;;;;;;4.50;4.30;;;;;;;21.50;68.94;101737.84;6365153;28;20213;-78
2021/08/13 08:01:00;;;;;;;7.22;4.80;;;;;;;21.55;69.55;101745.38;6346418;28;20209;-78
2021/08/13 08:04:06;;;;;;;6.45;4.30;;;;;;;21.50;69.05;101757.28;6364866;28;20186;-78
2021/08/13 08:07:16;;;;;;;4.82;4.43;;;;;;;21.55;68.77;101745.38;6364967;28;20227;-77
2021/08/13 08:10:20;;;;;;;5.28;4.78;;;;;;;21.64;68.66;101755.72;6364006;28;20206;-78
2021/08/13 08:13:24;;;;;;;5.75;4.40;;;;;;;21.66;67.74;101758.22;6363524;28;20482;-79
2021/08/13 08:16:28;;;;;;;6.18;4.45;;;;;;;21.78;67.27;101761.63;6363575;28;20197;-77
2021/08/13 08:19:34;;;;;;;5.70;4.00;;;;;;;21.81;66.95;101755.53;6363491;28;20259;-78
2021/08/13 08:22:39;;;;;;;7.03;4.88;;;;;;;21.91;67.01;101744.50;6364971;28;20501;-76
2021/08/13 08:25:46;;;;;;;4.55;4.25;;;;;;;21.94;66.51;101755.09;6369072;28;20461;-78
2021/08/13 08:28:53;;;;;;;5.55;4.35;;;;;;;21.94;66.76;101755.09;6368829;28;20192;-77
2021/08/13 08:31:59;;;;;;;5.28;4.60;;;;;;;21.89;66.45;101752.28;6367597;28;20229;-78
2021/08/13 08:35:06;;;;;;;4.85;4.55;;;;;;;21.95;66.23;101762.31;6368371;28;20312;-77
2021/08/13 08:38:10;;;;;;;4.95;4.50;;;;;;;21.92;67.46;101762.84;6368685;28;20253;-78
2021/08/13 08:41:14;;;;;;;4.18;3.95;;;;;;;21.92;68.18;101757.31;6368397;28;20248;-77
2021/08/13 08:44:18;;;;;;;6.13;4.15;;;;;;;22.01;66.99;101755.66;6366477;28;20250;-78
2021/08/13 08:47:25;;;;;;;4.45;4.15;;;;;;;22.01;64.80;101752.06;6366337;28;20489;-78
2021/08/13 08:50:32;;;;;;;7.03;4.00;;;;;;;21.91;65.12;101744.50;6367323;28;20236;-77
2021/08/13 08:53:39;;;;;;;10.98;4.10;;;;;;;21.98;65.03;101745.09;6366299;28;20190;-77
2021/08/13 08:56:44;;;;;;;4.43;4.00;;;;;;;21.96;64.74;101747.31;6366696;28;20193;-77
2021/08/13 08:59:54;;;;;;;4.93;4.28;;;;;;;22.04;65.16;101732.91;6366278;28;20186;-77
2021/08/13 09:02:59;;;;;;;4.10;3.90;;;;;;;22.06;63.79;101741.78;6365190;28;20474;-77
2021/08/13 09:06:06;;;;;;;3.85;3.55;;;;;;;22.02;63.53;101742.63;6366301;28;20182;-75
2021/08/13 09:09:10;;;;;;;4.15;3.72;;;;;;;22.05;63.68;101753.19;6364794;28;20186;-75
2021/08/13 09:12:14;;;;;;;5.05;3.97;;;;;;;22.14;63.51;101738.50;6365944;28;20242;-77
2021/08/13 09:15:33;;;;;;;3.60;3.50;;;;;;;22.14;63.57;101732.09;6366240;28;20182;-76
2021/08/13 09:18:39;;;;;;;4.40;3.90;;;;;;;22.20;63.42;101737.41;6367694;28;20213;-78
2021/08/13 09:21:44;;;;;;;3.90;3.70;;;;;;;22.17;64.48;101732.41;6365550;28;20478;-77
2021/08/13 09:24:51;;;;;;;4.25;3.90;;;;;;;22.20;62.87;101731.84;6365232;28;20383;-77
2021/08/13 09:28:13;;;;;;;7.03;3.83;;;;;;;22.31;63.01;101730.78;6365934;28;20206;-79
2021/08/13 09:31:39;;;;;;;3.78;3.58;;;;;;;22.26;62.73;101730.75;6380881;27;20453;-77
2021/08/13 09:34:49;;;;;;;5.30;3.75;;;;;;;22.30;62.84;101731.88;6346416;28;20333;-77
2021/08/13 09:37:54;;;;;;;8.30;4.10;;;;;;;22.32;63.16;101721.31;6365850;28;20182;-78
2021/08/13 09:41:07;;;;;;;4.00;3.70;;;;;;;22.42;62.49;101729.69;6365440;28;20242;-77
2021/08/13 09:44:12;;;;;;;4.00;3.72;;;;;;;22.50;61.94;101727.47;6365317;28;20189;-76
2021/08/13 09:47:19;;;;;;;3.97;3.80;;;;;;;22.54;61.75;101711.94;6365447;28;20182;-76
2021/08/13 09:50:35;;;;;;;4.65;4.25;;;;;;;22.56;61.55;101707.75;6365165;28;20186;-76
2021/08/13 09:53:56;;;;;;;4.18;4.07;;;;;;;22.62;61.11;101705.81;6345801;28;20218;-77
2021/08/13 09:57:08;;;;;;;4.07;3.88;;;;;;;22.65;61.78;101703.34;6379744;27;20205;-77
2021/08/13 10:00:14;;;;;;;4.00;3.60;;;;;;;22.76;61.40;101701.41;6364971;28;20182;-77
2021/08/13 10:03:20;;;;;;;4.07;3.70;;;;;;;22.82;60.25;101705.88;6364792;28;20193;-77
2021/08/13 10:06:30;;;;;;;3.78;3.60;;;;;;;22.86;59.89;101702.25;6363759;28;20490;-77
2021/08/13 10:09:35;;;;;;;5.03;4.43;;;;;;;22.89;60.04;101700.84;6363510;28;20301;-77
2021/08/13 10:12:43;;;;;;;4.32;4.13;;;;;;;23.01;60.69;101687.47;6328951;28;20218;-77
2021/08/13 10:15:55;;;;;;;4.55;4.13;;;;;;;23.05;59.98;101694.19;6380531;27;20198;-78
2021/08/13 10:19:06;;;;;;;4.60;4.45;;;;;;;23.14;60.53;101683.31;6346746;28;20198;-77
2021/08/13 10:22:16;;;;;;;4.40;4.00;;;;;;;23.20;59.98;101680.25;6366117;28;20193;-77
2021/08/13 10:25:22;;;;;;;5.22;3.95;;;;;;;23.32;60.24;101688.28;6347806;28;20239;-78
2021/08/13 10:28:27;;;;;;;5.45;3.92;;;;;;;23.38;61.30;101682.47;6364633;28;20204;-77
2021/08/13 10:31:38;;;;;;;4.25;3.95;;;;;;;23.41;60.82;101684.69;6346856;28;20241;-78
2021/08/13 10:34:45;;;;;;;5.97;4.55;;;;;;;23.54;59.95;101680.50;6370928;27;20283;-77
2021/08/13 10:37:49;;;;;;;4.50;4.30;;;;;;;23.49;59.04;101672.16;6338977;28;20269;-77
2021/08/13 10:40:56;;;;;;;4.90;4.70;;;;;;;23.54;59.89;101658.19;6339274;28;20246;-77
2021/08/13 10:44:09;;;;;;;4.88;4.57;;;;;;;23.62;60.81;101661.22;6322867;28;20466;-78
2021/08/13 10:47:17;;;;;;;4.35;4.22;;;;;;;23.73;59.33;101655.63;6321168;28;20236;-77
2021/08/13 10:50:22;;;;;;;4.53;4.20;;;;;;;23.83;58.96;101655.59;6338079;28;20183;-76
2021/08/13 10:53:30;;;;;;;5.45;5.05;;;;;;;23.88;58.74;101661.94;6335477;28;20222;-76
2021/08/13 10:56:40;;;;;;;5.28;4.68;;;;;;;23.90;59.47;101653.31;6336266;28;20202;-76
2021/08/13 10:59:56;;;;;;;5.22;4.80;;;;;;;23.98;59.41;101648.00;6318865;28;20276;-76
2021/08/13 11:03:21;;;;;;;12.48;5.43;;;;;;;23.93;59.47;101644.38;6318937;28;20213;-76
2021/08/13 11:06:42;;;;;;;6.28;4.90;;;;;;;24.02;59.69;101643.50;6319399;28;20369;-77
2021/08/13 11:09:50;;;;;;;9.43;5.05;;;;;;;24.04;58.92;101651.56;6319081;28;20205;-75
2021/08/13 11:16:35;;;;;;;4.82;4.63;;;;;;;24.07;57.91;101637.88;6333307;27;20770;-76
2021/08/13 11:19:59;;;;;;;7.97;5.10;;;;;;;24.09;57.43;101637.63;6332341;28;20191;-76
2021/08/13 11:23:14;;;;;;;5.38;4.95;;;;;;;24.19;58.33;101643.16;6332525;28;20183;-76
2021/08/13 11:26:18;;;;;;;9.23;4.82;;;;;;;24.13;58.31;101633.16;6365478;28;20279;-78
2021/08/13 11:29:39;;;;;;;9.40;5.32;;;;;;;24.23;58.11;101633.09;6331643;28;20198;-76
2021/08/13 11:33:39;;;;;;;5.05;4.90;;;;;;;24.28;57.15;101631.09;6331979;28;20202;-75
2021/08/13 11:36:54;;;;;;;4.88;4.68;;;;;;;24.36;56.39;101626.88;6332394;28;20202;-77
2021/08/13 11:40:03;;;;;;;5.03;4.50;;;;;;;24.34;57.30;101611.53;6332593;28;20214;-76
2021/08/13 11:43:12;;;;;;;6.50;4.93;;;;;;;24.34;55.49;101611.53;6332933;28;20190;-78
2021/08/13 11:46:24;;;;;;;5.35;5.03;;;;;;;24.49;55.89;101619.78;6334321;28;20206;-77
2021/08/13 11:49:35;;;;;;;5.30;4.82;;;;;;;24.64;56.11;101623.28;6332472;28;20336;-77
2021/08/13 11:52:46;;;;;;;5.82;5.03;;;;;;;24.64;54.84;101612.13;6334135;28;20199;-78
2021/08/13 11:55:54;;;;;;;5.88;5.20;;;;;;;24.80;55.75;101613.72;6333540;28;20440;-78
2021/08/13 11:59:03;;;;;;;6.25;5.63;;;;;;;24.80;55.15;101613.72;6334880;28;20202;-79
2021/08/13 12:02:10;;;;;;;7.40;5.28;;;;;;;24.91;55.63;101600.47;6336016;28;20259;-79
2021/08/13 12:05:18;;;;;;;5.43;5.03;;;;;;;24.94;56.16;101594.28;6335059;28;20187;-80
2021/08/13 12:08:23;;;;;;;8.48;5.10;;;;;;;25.01;55.26;101602.34;6334289;28;20415;-78
2021/08/13 12:11:29;;;;;;;5.45;4.80;;;;;;;25.03;53.96;101603.72;6368980;28;20214;-78
2021/08/13 12:14:48;;;;;;;5.07;4.88;;;;;;;25.06;53.97;101588.31;6333891;28;20355;-78
2021/08/13 12:17:54;;;;;;;5.35;5.03;;;;;;;25.07;54.04;101592.75;6368868;28;20384;-79
2021/08/13 12:21:05;;;;;;;5.75;5.38;;;;;;;25.10;53.92;101592.19;6335042;28;20203;-79
2021/08/13 12:24:14;;;;;;;5.65;5.10;;;;;;;25.09;53.52;101580.16;6334561;28;20352;-79
2021/08/13 12:27:18;;;;;;;6.13;5.70;;;;;;;25.12;54.24;101578.75;6321232;28;20272;-78
2021/08/13 12:30:23;;;;;;;5.68;5.38;;;;;;;25.12;55.18;101573.16;6351560;28;20231;-78
2021/08/13 12:33:30;;;;;;;5.85;5.45;;;;;;;25.06;53.67;101577.16;6318281;28;20199;-79
2021/08/13 12:36:36;;;;;;;5.82;5.40;;;;;;;25.03;54.45;101572.16;6351758;28;20292;-78
2021/08/13 12:39:43;;;;;;;6.93;5.70;;;;;;;25.03;52.27;101573.00;6317303;28;20491;-78
2021/08/13 12:42:51;;;;;;;5.75;5.55;;;;;;;25.03;52.92;101572.16;6351787;28;20199;-78
2021/08/13 12:46:00;;;;;;;6.10;5.72;;;;;;;25.01;52.28;101568.84;6318512;28;20199;-78
2021/08/13 12:49:07;;;;;;;6.10;5.60;;;;;;;25.03;52.37;101552.63;6351704;28;20183;-78
2021/08/13 12:52:24;;;;;;;5.18;4.97;;;;;;;25.15;52.37;101551.06;6316520;28;20274;-78
2021/08/13 12:55:36;;;;;;;6.70;6.13;;;;;;;25.09;53.15;101557.03;6350882;28;20514;-79
2021/08/13 12:58:40;;;;;;;6.38;5.28;;;;;;;25.18;53.22;101560.81;6316943;28;20292;-78
2021/08/13 13:01:54;;;;;;;6.68;5.35;;;;;;;25.22;52.06;101550.69;6350781;28;20249;-78
2021/08/13 13:05:06;;;;;;;10.65;5.85;;;;;;;25.13;51.95;101552.50;6317250;28;20566;-79
2021/08/13 13:08:19;;;;;;;5.68;5.38;;;;;;;25.20;51.98;101541.78;6348971;28;20349;-77
2021/08/13 13:11:26;;;;;;;8.82;5.32;;;;;;;25.15;52.12;101544.66;6314213;28;20203;-78
2021/08/13 13:14:54;;;;;;;6.32;4.85;;;;;;;25.13;53.02;101524.56;6315598;28;20235;-78
2021/08/13 13:18:00;;;;;;;5.28;4.97;;;;;;;25.07;51.56;101525.75;6315758;28;20375;-78
2021/08/13 13:21:24;;;;;;;8.48;5.25;;;;;;;25.25;51.87;101528.59;6316425;28;20191;-78
2021/08/13 13:24:32;;;;;;;5.38;5.03;;;;;;;25.28;51.51;101521.59;6316500;28;20183;-78
2021/08/13 13:28:04;;;;;;;13.70;10.68;;;;;;;25.22;52.15;101534.78;6316777;28;20183;-78
2021/08/13 13:31:27;;;;;;;7.40;6.85;;;;;;;25.27;52.56;101525.53;6314873;28;20183;-78
2021/08/13 13:34:57;;;;;;;5.85;5.40;;;;;;;25.39;52.74;101523.13;6315864;28;20190;-78
2021/08/13 13:38:36;;;;;;;6.88;6.20;;;;;;;25.36;52.88;101523.72;6305614;28;20199;-78
2021/08/13 13:41:41;;;;;;;16.25;12.48;;;;;;;25.22;52.73;101523.63;6347760;28;20206;-78
2021/08/13 13:44:48;;;;;;;7.75;6.95;;;;;;;25.06;51.53;101512.94;6314214;28;20539;-77
2021/08/13 13:47:57;;;;;;;5.43;4.95;;;;;;;25.01;51.72;101515.78;6313511;28;20190;-76
2021/08/13 13:51:01;;;;;;;6.25;5.72;;;;;;;25.17;52.42;101517.25;6312741;28;20241;-76
2021/08/13 13:54:06;;;;;;;5.60;5.30;;;;;;;25.18;51.25;101493.78;6311564;28;20235;-76
2021/08/13 13:57:11;;;;;;;5.63;5.25;;;;;;;25.24;51.54;101482.25;6312087;28;20223;-76
2021/08/13 14:00:17;;;;;;;8.43;5.38;;;;;;;25.34;51.80;101475.72;6314681;28;20221;-77
2021/08/13 14:03:26;;;;;;;4.78;4.57;;;;;;;25.34;52.20;101486.88;6312080;28;20476;-78
2021/08/13 14:06:30;;;;;;;9.82;6.45;;;;;;;25.29;53.53;101473.84;6345628;28;20270;-77
2021/08/13 14:09:35;;;;;;;5.95;5.00;;;;;;;25.40;53.21;101469.75;6311768;28;20305;-79
2021/08/13 14:12:41;;;;;;;4.53;4.20;;;;;;;25.45;51.15;101466.03;6314628;28;20183;-78
2021/08/13 14:15:45;;;;;;;5.97;3.97;;;;;;;25.41;49.62;101459.41;6311815;28;20234;-76
2021/08/13 14:18:50;;;;;;;4.47;4.00;;;;;;;25.41;49.32;101448.25;6345528;28;20199;-76
2021/08/13 14:21:55;;;;;;;12.85;9.48;;;;;;;25.39;49.87;101447.72;6311329;28;20258;-77
2021/08/13 14:24:59;;;;;;;9.75;6.93;;;;;;;25.36;49.70;101451.09;6312499;28;20230;-79
2021/08/13 14:28:07;;;;;;;6.35;5.72;;;;;;;25.39;50.30;101448.56;6311719;28;20203;-77
2021/08/13 14:31:12;;;;;;;7.22;6.63;;;;;;;25.39;49.98;101456.94;6344977;28;20266;-76
2021/08/13 14:34:19;;;;;;;4.95;3.78;;;;;;;25.32;48.39;101450.06;6310418;28;20199;-76
2021/08/13 14:37:24;;;;;;;9.25;3.78;;;;;;;25.07;48.59;101454.00;6310909;28;20222;-76
2021/08/13 14:40:29;;;;;;;3.50;3.30;;;;;;;24.96;49.08;101446.06;6310726;28;20203;-76